In Rescue
 
Open Full Screen Window  High Contrast Mode
September 21, 2020 11:26 PM EDT
Weather Information
Wind Direction
  ---
Wind Speed
  00 kt (0 mph)
Wind Gust
  00 kt (0 mph)
Altimeter
30.33 in
Visibility
10 SM
Temperature
11° C
52° F
Dewpoint
09° C
48° F
Humidity
88%
1hr Rain Fall
00.00 in.
24hr Rain Fall
00.00 in.
Sky Condition
Clear
VFR

METAR KI69 220326Z AUTO 00000KT 10SM CLR 11/09 A3033 RMK AO2 T01120089

FAA Disclaimer: The data displayed is for advisory purposes only and is not to be used for flight planning or operations.